createdAt,value
2023-11-27T00:00:09.356Z,98636.41
2023-11-27T00:06:11.660Z,98646.63
2023-11-27T00:12:13.774Z,98637.00
2023-11-27T00:18:15.727Z,98632.16
2023-11-27T00:24:17.821Z,98636.06
2023-11-27T00:30:19.801Z,98624.66
2023-11-27T00:36:21.731Z,98623.75
2023-11-27T00:42:23.916Z,98619.72
2023-11-27T00:48:25.886Z,98612.47
2023-11-27T00:54:27.816Z,98605.03
2023-11-27T01:00:30.282Z,98608.72
2023-11-27T01:06:32.309Z,98608.75
2023-11-27T01:12:35.462Z,98605.06
2023-11-27T01:18:37.797Z,98598.59
2023-11-27T01:24:39.719Z,98590.25
2023-11-27T01:30:41.754Z,98587.00
2023-11-27T01:36:47.732Z,98573.44
2023-11-27T01:42:50.073Z,98566.84
2023-11-27T01:48:57.777Z,98561.19
2023-11-27T01:54:59.982Z,98560.00
2023-11-27T02:01:02.232Z,98556.28
2023-11-27T02:07:04.506Z,98547.97
2023-11-27T02:13:06.450Z,98543.66
2023-11-27T02:19:09.514Z,98528.84
2023-11-27T02:25:11.519Z,98537.91
2023-11-27T02:31:13.500Z,98541.47
2023-11-27T02:37:15.694Z,98527.06
2023-11-27T02:43:17.673Z,98512.91
2023-11-27T02:49:19.725Z,98512.31
2023-11-27T02:55:22.184Z,98504.88
2023-11-27T03:01:27.958Z,98496.53
2023-11-27T03:07:29.979Z,98488.75
2023-11-27T03:13:31.960Z,98482.97
2023-11-27T03:19:47.069Z,98472.56
2023-11-27T03:25:50.231Z,98473.19
2023-11-27T03:31:52.230Z,98456.91
2023-11-27T03:37:54.199Z,98450.50
2023-11-27T03:43:56.158Z,98438.59
2023-11-27T03:49:59.129Z,98435.13
2023-11-27T03:56:01.240Z,98433.56
2023-11-27T04:02:03.558Z,98421.75
2023-11-27T04:08:05.780Z,98416.25
2023-11-27T04:14:08.118Z,98408.28
2023-11-27T04:20:12.858Z,98407.22
2023-11-27T04:26:16.347Z,98402.78
2023-11-27T04:32:18.277Z,98393.81
2023-11-27T04:38:20.238Z,98381.09
2023-11-27T04:44:24.927Z,98377.09
2023-11-27T04:50:27.073Z,98370.31
2023-11-27T04:56:29.066Z,98358.59
2023-11-27T05:02:31.232Z,98350.44
2023-11-27T05:08:33.196Z,98351.38
2023-11-27T05:14:35.118Z,98337.63
2023-11-27T05:20:37.532Z,98335.81
2023-11-27T05:26:39.583Z,98342.47
2023-11-27T05:32:42.284Z,98336.63
2023-11-27T05:38:44.719Z,98326.16
2023-11-27T05:44:46.685Z,98326.56
2023-11-27T05:50:48.711Z,98314.41
2023-11-27T05:56:51.570Z,98316.84
2023-11-27T06:02:55.138Z,98308.44
2023-11-27T06:08:57.453Z,98296.66
2023-11-27T06:14:59.424Z,98291.16
2023-11-27T06:21:01.429Z,98287.44
2023-11-27T06:27:03.849Z,98284.59
2023-11-27T06:33:05.849Z,98277.00
2023-11-27T06:39:09.218Z,98283.41
2023-11-27T06:45:11.483Z,98263.19
2023-11-27T06:51:13.458Z,98259.25
2023-11-27T06:57:15.423Z,98253.22
2023-11-27T07:03:17.355Z,98251.13
2023-11-27T07:09:19.903Z,98241.22
2023-11-27T07:15:21.980Z,98232.63
2023-11-27T07:21:28.575Z,98230.22
2023-11-27T07:27:30.710Z,98220.06
2023-11-27T07:33:32.710Z,98202.09
2023-11-27T07:39:34.672Z,98212.94
2023-11-27T07:45:36.598Z,98195.16
2023-11-27T07:51:38.563Z,98201.44
2023-11-27T07:57:40.718Z,98187.81
2023-11-27T08:03:42.828Z,98185.53
2023-11-27T08:09:50.111Z,98176.28
2023-11-27T08:15:53.724Z,98162.34
2023-11-27T08:21:55.709Z,98162.19
2023-11-27T08:27:58.798Z,98147.13
2023-11-27T08:34:01.234Z,98137.75
2023-11-27T08:40:09.203Z,98140.63
2023-11-27T08:46:11.297Z,98124.03
2023-11-27T08:52:14.069Z,98118.47
2023-11-27T08:58:16.080Z,98121.63
2023-11-27T09:04:20.086Z,98108.81
2023-11-27T09:10:22.714Z,98109.69
2023-11-27T09:16:25.156Z,98103.13
2023-11-27T09:22:27.179Z,98096.06
2023-11-27T09:28:29.146Z,98089.16
2023-11-27T09:34:31.307Z,98088.91
2023-11-27T09:40:43.414Z,98074.34
2023-11-27T09:46:47.791Z,98062.81
2023-11-27T09:53:06.892Z,98054.38
2023-11-27T09:59:11.444Z,98036.59
2023-11-27T10:05:13.638Z,98026.25
2023-11-27T10:11:15.995Z,98010.28
2023-11-27T10:17:18.849Z,98002.72
2023-11-27T10:23:22.312Z,97991.19
2023-11-27T10:29:29.609Z,97979.91
2023-11-27T10:35:34.135Z,97961.31
2023-11-27T10:41:37.767Z,97964.34
2023-11-27T10:47:39.908Z,97938.00
2023-11-27T10:53:50.516Z,97920.94
2023-11-27T10:59:52.988Z,97900.91
2023-11-27T11:05:57.915Z,97884.97
2023-11-27T11:12:01.877Z,97884.00
2023-11-27T11:18:13.106Z,97862.41
2023-11-27T11:24:45.745Z,97849.47
2023-11-27T11:31:17.255Z,97831.38
2023-11-27T11:37:19.708Z,97824.69
2023-11-27T11:43:25.458Z,97810.16
2023-11-27T11:49:30.234Z,97799.91
2023-11-27T11:55:36.667Z,97780.53
2023-11-27T12:01:42.648Z,97767.00
2023-11-27T12:07:46.234Z,97749.47
2023-11-27T12:13:48.316Z,97737.59
2023-11-27T12:19:51.527Z,97721.06
2023-11-27T12:25:53.801Z,97698.56
2023-11-27T12:31:57.143Z,97693.03
2023-11-27T12:38:06.258Z,97683.47
2023-11-27T12:44:17.226Z,97682.81
2023-11-27T12:50:30.408Z,97679.16
2023-11-27T12:56:33.328Z,97669.13
2023-11-27T13:02:44.528Z,97642.56
2023-11-27T13:08:50.653Z,97630.50
2023-11-27T13:14:53.043Z,97616.00
2023-11-27T13:20:56.561Z,97594.13
2023-11-27T13:27:06.327Z,97582.31
2023-11-27T13:33:11.570Z,97596.38
2023-11-27T13:39:27.726Z,97594.09
2023-11-27T13:45:36.578Z,97567.56
2023-11-27T13:51:38.824Z,97571.22
2023-11-27T13:57:42.468Z,97561.78
2023-11-27T14:03:44.478Z,97547.66
2023-11-27T14:09:49.653Z,97538.47
2023-11-27T14:15:51.591Z,97531.69
2023-11-27T14:22:11.835Z,97514.94
2023-11-27T14:28:31.836Z,97506.91
2023-11-27T14:34:33.938Z,97493.47
2023-11-27T14:40:36.046Z,97488.09
2023-11-27T14:46:38.071Z,97470.19
2023-11-27T14:52:40.080Z,97459.16
2023-11-27T14:58:42.082Z,97449.06
2023-11-27T15:04:45.346Z,97435.19
2023-11-27T15:10:50.353Z,97421.16
2023-11-27T15:16:52.583Z,97410.63
2023-11-27T15:22:55.286Z,97396.69
2023-11-27T15:28:57.637Z,97391.81
2023-11-27T15:34:59.580Z,97382.69
2023-11-27T15:41:01.700Z,97394.91
2023-11-27T15:47:03.794Z,97382.50
2023-11-27T15:53:07.442Z,97377.25
2023-11-27T15:59:10.766Z,97366.88
2023-11-27T16:05:13.872Z,97365.34
2023-11-27T16:11:16.951Z,97358.69
2023-11-27T16:17:19.562Z,97339.56
2023-11-27T16:23:21.927Z,97321.03
2023-11-27T16:29:24.019Z,97335.66
2023-11-27T16:35:25.966Z,97319.16
2023-11-27T16:41:27.898Z,97311.97
2023-11-27T16:47:33.480Z,97306.75
2023-11-27T16:53:36.537Z,97296.75
2023-11-27T16:59:38.497Z,97288.19
2023-11-27T17:05:40.600Z,97294.13
2023-11-27T17:11:43.619Z,97278.28
2023-11-27T17:17:49.831Z,97275.78
2023-11-27T17:23:51.881Z,97266.25
2023-11-27T17:29:53.816Z,97256.06
2023-11-27T17:35:55.786Z,97255.09
2023-11-27T17:41:57.733Z,97246.31
2023-11-27T17:48:01.035Z,97247.28
2023-11-27T17:54:03.447Z,97234.84
2023-11-27T18:00:14.997Z,97234.28
2023-11-27T18:06:17.075Z,97228.28
2023-11-27T18:12:19.071Z,97222.22
2023-11-27T18:18:21.309Z,97215.16
2023-11-27T18:24:23.340Z,97213.88
2023-11-27T18:30:25.358Z,97202.13
2023-11-27T18:36:28.550Z,97193.19
2023-11-27T18:42:40.928Z,97184.06
2023-11-27T18:48:45.503Z,97178.19
2023-11-27T18:54:47.428Z,97168.16
2023-11-27T19:00:49.672Z,97165.91
2023-11-27T19:06:51.603Z,97157.97
2023-11-27T19:12:53.994Z,97148.66
2023-11-27T19:18:56.397Z,97151.50
2023-11-27T19:25:00.012Z,97144.47
2023-11-27T19:31:02.372Z,97137.66
2023-11-27T19:37:05.881Z,97134.59
2023-11-27T19:43:07.840Z,97114.88
2023-11-27T19:49:10.092Z,97107.16
2023-11-27T19:55:12.448Z,97105.50
2023-11-27T20:01:15.317Z,97107.72
2023-11-27T20:07:18.409Z,97098.38
2023-11-27T20:13:20.652Z,97098.78
2023-11-27T20:19:22.777Z,97108.38
2023-11-27T20:25:28.515Z,97103.25
2023-11-27T20:31:36.913Z,97103.69
2023-11-27T20:37:41.268Z,97093.94
2023-11-27T20:43:43.773Z,97093.53
2023-11-27T20:49:45.736Z,97094.75
2023-11-27T20:55:49.010Z,97098.44
2023-11-27T21:01:51.034Z,97094.16
2023-11-27T21:07:54.073Z,97085.19
2023-11-27T21:13:56.693Z,97083.16
2023-11-27T21:20:05.559Z,97080.31
2023-11-27T21:26:08.490Z,97081.53
2023-11-27T21:32:10.629Z,97075.41
2023-11-27T21:38:12.657Z,97074.22
2023-11-27T21:44:14.625Z,97071.16
2023-11-27T21:50:16.693Z,97064.88
2023-11-27T21:56:18.740Z,97066.50
2023-11-27T22:02:22.986Z,97064.03
2023-11-27T22:08:25.248Z,97066.06
2023-11-27T22:14:27.487Z,97064.25
2023-11-27T22:20:29.421Z,97053.06
2023-11-27T22:26:31.370Z,97062.22
2023-11-27T22:32:33.782Z,97055.91
2023-11-27T22:38:35.801Z,97062.63
2023-11-27T22:44:37.835Z,97058.75
2023-11-27T22:50:39.757Z,97052.06
2023-11-27T22:56:41.777Z,97064.03
2023-11-27T23:02:43.842Z,97057.53
2023-11-27T23:08:46.000Z,97058.75
2023-11-27T23:14:48.095Z,97057.16
2023-11-27T23:20:50.013Z,97061.19
2023-11-27T23:26:52.038Z,97063.84
2023-11-27T23:32:54.050Z,97060.72
2023-11-27T23:38:56.036Z,97065.63
2023-11-27T23:44:57.988Z,97060.72
2023-11-27T23:50:59.928Z,97065.03
2023-11-27T23:57:01.875Z,97055.25
